createdAt,value
2023-02-02T07:51:32.063Z,1.00
2023-02-02T07:54:14.100Z,0.52
2023-02-02T07:56:52.486Z,0.90
2023-02-02T07:59:20.709Z,0.80
2023-02-02T08:01:49.693Z,0.85
2023-02-02T08:04:26.911Z,1.08
2023-02-02T08:06:54.987Z,1.23
2023-02-02T08:09:23.034Z,1.25
2023-02-02T08:12:03.792Z,1.20
2023-02-02T08:14:39.066Z,1.55
2023-02-02T08:17:25.640Z,1.02
2023-02-02T08:20:04.246Z,1.42
2023-02-02T08:22:53.004Z,2.10
2023-02-02T08:25:37.140Z,1.90
2023-02-02T08:28:23.351Z,1.33
2023-02-02T08:30:52.507Z,1.38
2023-02-02T08:33:29.288Z,1.20
2023-02-02T09:09:01.442Z,1.10
2023-02-02T09:15:15.618Z,1.15
2023-02-02T09:21:44.939Z,1.80
2023-02-02T09:24:24.578Z,1.70
2023-02-02T09:39:49.506Z,1.70
2023-02-02T09:45:42.867Z,2.00
2023-02-02T09:51:25.092Z,1.17
2023-02-02T09:54:20.549Z,1.05
2023-02-02T10:00:01.792Z,1.13
2023-02-02T10:06:01.090Z,1.30
2023-02-02T10:08:57.723Z,1.40
2023-02-02T10:15:14.905Z,1.13
2023-02-02T10:21:02.539Z,1.13
2023-02-02T10:26:50.263Z,1.42
2023-02-02T10:29:30.889Z,1.40
2023-02-02T10:35:21.915Z,1.40
2023-02-02T10:41:14.629Z,1.58
2023-02-02T10:44:20.372Z,1.20
2023-02-02T10:49:56.394Z,1.80
2023-02-02T10:55:45.704Z,1.40
2023-02-02T11:01:34.178Z,1.70
2023-02-02T11:04:40.638Z,1.80
2023-02-02T11:10:25.303Z,1.50
2023-02-02T11:16:42.498Z,1.70
2023-02-02T11:19:21.268Z,1.90
2023-02-02T11:25:09.099Z,1.83
2023-02-02T11:30:56.299Z,1.65
2023-02-02T11:36:42.825Z,1.10
2023-02-02T11:39:20.632Z,1.27
2023-02-02T14:15:40.286Z,9.25
2023-02-02T14:18:32.177Z,8.75
2023-02-02T14:21:21.999Z,8.25
2023-02-02T14:30:45.449Z,6.13
2023-02-02T14:36:41.268Z,5.25
2023-02-02T14:39:48.457Z,6.22
2023-02-02T14:55:06.200Z,6.22
2023-02-02T14:57:49.851Z,5.77
2023-02-02T15:04:04.916Z,4.68
2023-02-02T15:06:44.905Z,4.20
2023-02-02T15:19:04.603Z,3.30
2023-02-02T15:21:38.156Z,3.55
2023-02-02T15:24:09.818Z,3.67
2023-02-02T15:26:42.797Z,4.60
2023-02-02T15:29:20.941Z,4.25
2023-02-02T15:31:54.967Z,4.55
2023-02-02T15:34:44.373Z,4.35
2023-02-02T15:37:40.539Z,5.30
2023-02-02T15:40:25.539Z,5.03
2023-02-02T15:43:15.603Z,5.18
2023-02-02T15:45:52.286Z,5.20
2023-02-02T15:48:32.410Z,4.85
2023-02-02T15:51:17.558Z,5.47
2023-02-02T15:53:53.177Z,5.05
2023-02-02T15:56:26.437Z,6.68
2023-02-02T15:59:01.927Z,4.95
2023-02-02T16:01:36.406Z,5.15
2023-02-02T16:04:18.530Z,5.90
2023-02-02T16:07:10.774Z,5.88
2023-02-02T16:09:41.429Z,6.32
2023-02-02T16:12:15.805Z,5.40
2023-02-02T16:14:50.009Z,5.57
2023-02-02T16:17:37.773Z,6.35
2023-02-02T16:20:22.016Z,6.00
2023-02-02T16:22:59.478Z,4.78
2023-02-02T16:25:41.985Z,6.43
2023-02-02T16:54:21.199Z,6.00
2023-02-02T16:57:18.395Z,5.47
2023-02-02T17:00:07.116Z,6.18
2023-02-02T17:03:17.695Z,6.28
2023-02-02T17:21:58.724Z,7.68
2023-02-02T17:24:28.466Z,8.57
2023-02-02T17:26:56.936Z,10.02
2023-02-02T17:29:26.843Z,7.75
2023-02-02T17:32:09.412Z,8.30
2023-02-02T17:34:40.278Z,9.32
2023-02-02T17:37:11.616Z,8.45
2023-02-02T17:39:49.657Z,8.45
2023-02-02T17:42:39.077Z,9.63
2023-02-02T17:45:34.311Z,11.07
2023-02-02T17:48:22.377Z,9.32
2023-02-02T17:50:51.705Z,10.35
2023-02-02T17:53:25.112Z,8.77
2023-02-02T17:56:29.843Z,8.27
2023-02-02T17:59:06.635Z,9.10
2023-02-02T18:01:52.142Z,9.43
2023-02-02T18:04:22.641Z,7.85
2023-02-02T18:07:03.763Z,8.67
2023-02-02T18:09:38.348Z,9.60
2023-02-02T18:12:08.280Z,10.75
2023-02-02T18:14:47.428Z,9.90
2023-02-02T18:17:15.971Z,9.07
2023-02-02T18:19:53.723Z,11.52
2023-02-02T18:22:50.807Z,9.05
2023-02-02T18:25:20.777Z,7.10
2023-02-02T18:37:14.187Z,11.10
2023-02-02T18:43:01.616Z,14.30
2023-02-02T18:45:37.318Z,13.02
2023-02-02T18:48:21.301Z,11.13
2023-02-02T18:50:55.434Z,12.68
2023-02-02T18:53:54.237Z,14.45
2023-02-02T18:59:03.965Z,9.65
2023-02-02T19:05:04.140Z,6.85
2023-02-02T19:30:23.337Z,3.63
2023-02-02T19:33:05.675Z,3.97
2023-02-02T19:39:14.641Z,3.97
2023-02-02T19:44:59.058Z,2.90
2023-02-02T19:48:00.976Z,3.58
2023-02-02T19:50:46.127Z,2.70
2023-02-02T19:53:19.598Z,3.38
2023-02-02T19:56:03.827Z,3.35
2023-02-02T19:58:34.979Z,3.10
2023-02-02T20:01:05.859Z,3.88
2023-02-02T20:03:46.592Z,4.07
2023-02-02T20:06:27.023Z,4.40
2023-02-02T20:09:12.478Z,4.40
2023-02-02T20:11:49.561Z,3.63
2023-02-02T20:14:30.969Z,3.85
2023-02-02T20:17:17.754Z,3.40
2023-02-02T20:19:47.912Z,3.85
2023-02-02T20:22:33.673Z,3.75
2023-02-02T20:28:32.097Z,3.60
2023-02-02T20:31:06.994Z,3.00
2023-02-02T20:33:35.119Z,2.90
2023-02-02T20:36:34.142Z,3.30
2023-02-02T20:39:17.730Z,2.72
2023-02-02T20:42:13.137Z,3.00
2023-02-02T20:44:50.371Z,3.00
2023-02-02T20:47:24.185Z,3.25
2023-02-02T20:50:02.298Z,2.95
2023-02-02T20:52:35.755Z,3.95
2023-02-02T20:57:54.583Z,3.55
2023-02-02T21:00:34.517Z,4.32
2023-02-02T21:03:25.515Z,3.65
2023-02-02T21:06:03.012Z,2.97
2023-02-02T21:08:59.972Z,3.28
2023-02-02T21:11:34.835Z,3.22
2023-02-02T21:14:14.295Z,3.72
2023-02-02T21:17:21.235Z,4.00
2023-02-02T21:32:58.179Z,4.97
2023-02-02T21:44:42.172Z,4.20
2023-02-02T21:51:00.744Z,2.90
2023-02-02T21:57:33.218Z,3.28
2023-02-02T22:00:21.448Z,3.72
2023-02-02T22:02:52.393Z,3.63
2023-02-02T22:05:24.740Z,3.30
2023-02-02T22:08:00.772Z,3.47
2023-02-02T22:10:43.143Z,2.88
2023-02-02T22:13:32.135Z,3.15
2023-02-02T22:16:14.813Z,2.42
2023-02-02T22:18:45.996Z,3.15
2023-02-02T22:21:38.069Z,5.07
2023-02-02T22:26:42.628Z,3.63
2023-02-02T22:29:22.940Z,3.03
2023-02-02T22:32:08.272Z,3.33
2023-02-02T22:34:59.867Z,2.88
2023-02-02T22:37:36.131Z,2.88
2023-02-02T22:43:43.513Z,3.22
2023-02-02T22:46:25.820Z,3.28
2023-02-02T22:49:16.640Z,2.80
2023-02-02T23:11:34.692Z,2.08
2023-02-02T23:14:21.333Z,2.75
2023-02-02T23:17:11.589Z,1.63
2023-02-02T23:20:01.136Z,3.03
2023-02-02T23:22:30.479Z,2.20
2023-02-02T23:25:00.303Z,2.47
2023-02-02T23:27:36.367Z,2.92
2023-02-02T23:30:13.026Z,2.00
2023-02-02T23:32:58.101Z,2.50
2023-02-02T23:35:37.123Z,2.65
2023-02-02T23:38:53.632Z,2.13
2023-02-02T23:44:11.932Z,2.53
2023-02-02T23:47:22.241Z,2.35
2023-02-02T23:50:21.569Z,2.38
